createdAt,value
2022-09-17T00:01:31.255Z,23.10
2022-09-17T00:04:05.497Z,22.95
2022-09-17T00:06:34.967Z,23.18
2022-09-17T00:09:02.415Z,23.26
2022-09-17T00:11:42.081Z,23.17
2022-09-17T00:14:13.560Z,23.27
2022-09-17T00:16:46.221Z,23.29
2022-09-17T00:19:16.666Z,23.29
2022-09-17T00:21:46.701Z,23.37
2022-09-17T00:24:14.660Z,23.38
2022-09-17T00:26:42.848Z,23.39
2022-09-17T00:29:10.627Z,23.09
2022-09-17T00:31:37.940Z,23.19
2022-09-17T00:34:10.148Z,23.33
2022-09-17T00:36:38.899Z,23.29
2022-09-17T00:39:09.801Z,22.98
2022-09-17T00:41:38.557Z,23.14
2022-09-17T00:44:42.796Z,23.19
2022-09-17T00:47:17.393Z,23.14
2022-09-17T00:49:44.762Z,23.01
2022-09-17T00:52:15.989Z,23.09
2022-09-17T00:54:46.970Z,23.02
2022-09-17T00:57:14.224Z,23.07
2022-09-17T00:59:41.241Z,22.98
2022-09-17T01:02:08.230Z,23.01
2022-09-17T01:04:35.119Z,23.02
2022-09-17T01:07:30.482Z,23.10
2022-09-17T01:10:29.764Z,23.07
2022-09-17T01:13:08.121Z,22.96
2022-09-17T01:15:49.798Z,22.84
2022-09-17T01:18:18.380Z,22.75
2022-09-17T01:21:03.310Z,22.69
2022-09-17T01:24:03.054Z,22.63
2022-09-17T01:27:06.249Z,22.59
2022-09-17T01:29:51.437Z,22.56
2022-09-17T01:32:27.199Z,22.48
2022-09-17T01:34:59.653Z,22.41
2022-09-17T01:37:36.073Z,22.40
2022-09-17T01:40:13.117Z,22.37
2022-09-17T01:42:58.273Z,22.31
2022-09-17T01:45:34.581Z,22.23
2022-09-17T01:48:12.045Z,22.23
2022-09-17T01:50:47.841Z,22.18
2022-09-17T01:53:17.665Z,22.17
2022-09-17T01:55:49.880Z,22.20
2022-09-17T01:58:29.397Z,22.20
2022-09-17T02:01:01.771Z,22.34
2022-09-17T02:03:42.863Z,22.09
2022-09-17T02:06:19.980Z,22.01
2022-09-17T02:09:17.095Z,22.04
2022-09-17T02:11:50.145Z,21.83
2022-09-17T02:14:25.091Z,21.81
2022-09-17T02:16:56.905Z,21.83
2022-09-17T02:19:38.315Z,21.77
2022-09-17T02:22:20.069Z,21.67
2022-09-17T02:24:58.718Z,21.63
2022-09-17T02:27:51.123Z,21.60
2022-09-17T02:30:18.319Z,21.45
2022-09-17T02:32:45.260Z,21.39
2022-09-17T02:35:14.016Z,21.34
2022-09-17T02:37:44.763Z,21.35
2022-09-17T02:40:14.713Z,21.20
2022-09-17T02:43:04.462Z,21.30
2022-09-17T02:45:46.445Z,21.26
2022-09-17T02:48:44.259Z,21.28
2022-09-17T02:51:26.416Z,21.22
2022-09-17T02:54:30.734Z,21.22
2022-09-17T02:57:42.672Z,21.05
2022-09-17T03:00:12.382Z,21.04
2022-09-17T03:02:48.741Z,20.89
2022-09-17T03:05:19.128Z,20.96
2022-09-17T03:07:47.010Z,20.90
2022-09-17T03:10:13.847Z,20.87
2022-09-17T03:12:40.997Z,20.86
2022-09-17T03:15:08.524Z,21.00
2022-09-17T03:17:37.606Z,20.86
2022-09-17T03:20:05.263Z,20.87
2022-09-17T03:22:32.076Z,20.81
2022-09-17T03:24:58.671Z,20.95
2022-09-17T03:27:25.311Z,20.75
2022-09-17T03:29:52.047Z,20.76
2022-09-17T03:32:18.657Z,20.78
2022-09-17T03:34:48.229Z,20.73
2022-09-17T03:37:16.195Z,20.72
2022-09-17T03:39:42.809Z,20.71
2022-09-17T03:42:09.367Z,20.79
2022-09-17T03:44:35.938Z,20.71
2022-09-17T03:47:02.543Z,20.59
2022-09-17T03:49:29.203Z,20.51
2022-09-17T03:51:55.798Z,20.46
2022-09-17T03:54:23.803Z,20.54
2022-09-17T03:56:50.409Z,20.36
2022-09-17T03:59:17.218Z,20.54
2022-09-17T04:01:44.035Z,20.55
2022-09-17T04:04:10.949Z,20.52
2022-09-17T04:06:41.265Z,20.60
2022-09-17T04:09:08.912Z,20.48
2022-09-17T04:11:35.869Z,20.32
2022-09-17T04:14:03.601Z,20.29
2022-09-17T04:16:30.352Z,20.42
2022-09-17T04:18:57.057Z,20.42
2022-09-17T04:21:23.721Z,20.32
2022-09-17T04:23:50.753Z,20.49
2022-09-17T04:26:17.511Z,20.52
2022-09-17T04:28:44.102Z,20.55
2022-09-17T04:31:12.312Z,20.59
2022-09-17T04:33:38.948Z,20.53
2022-09-17T04:36:05.591Z,20.44
2022-09-17T04:38:33.692Z,20.51
2022-09-17T04:41:01.333Z,20.58
2022-09-17T04:43:27.920Z,20.70
2022-09-17T04:45:54.534Z,20.70
2022-09-17T04:48:21.149Z,20.93
2022-09-17T04:50:53.109Z,20.97
2022-09-17T04:53:19.953Z,21.05
2022-09-17T04:55:51.760Z,21.36
2022-09-17T04:58:18.349Z,21.32
2022-09-17T05:00:45.392Z,21.29
2022-09-17T05:03:12.110Z,21.36
2022-09-17T05:05:38.788Z,21.26
2022-09-17T05:08:05.823Z,21.51
2022-09-17T05:10:36.515Z,21.48
2022-09-17T05:13:04.363Z,21.51
2022-09-17T05:15:32.127Z,21.78
2022-09-17T05:17:59.117Z,21.80
2022-09-17T05:20:25.953Z,21.89
2022-09-17T05:22:52.982Z,21.84
2022-09-17T05:25:24.836Z,21.99
2022-09-17T05:27:54.771Z,21.90
2022-09-17T05:30:21.522Z,22.29
2022-09-17T05:32:50.476Z,22.52
2022-09-17T05:35:17.293Z,22.65
2022-09-17T05:37:43.903Z,22.92
2022-09-17T05:40:10.804Z,23.13
2022-09-17T05:42:37.558Z,23.33
2022-09-17T05:45:05.848Z,23.66
2022-09-17T05:47:32.758Z,23.89
2022-09-17T05:49:59.442Z,24.09
2022-09-17T05:52:29.585Z,24.29
2022-09-17T05:54:57.414Z,24.51
2022-09-17T05:57:24.903Z,24.72
2022-09-17T05:59:51.531Z,25.02
2022-09-17T06:02:18.406Z,25.31
2022-09-17T06:04:46.194Z,25.18
2022-09-17T06:07:13.016Z,25.52
2022-09-17T06:09:41.658Z,25.56
2022-09-17T06:12:09.431Z,25.62
2022-09-17T06:14:37.268Z,25.81
2022-09-17T06:17:06.460Z,25.86
2022-09-17T06:19:33.029Z,25.60
2022-09-17T06:22:02.012Z,25.70
2022-09-17T06:24:28.779Z,25.88
2022-09-17T06:26:58.872Z,25.87
2022-09-17T06:29:25.560Z,26.22
2022-09-17T06:31:52.795Z,25.86
2022-09-17T06:34:21.045Z,26.24
2022-09-17T06:36:49.593Z,25.93
2022-09-17T06:39:16.546Z,25.97
2022-09-17T06:41:43.529Z,25.90
2022-09-17T06:44:12.941Z,26.05
2022-09-17T06:46:39.589Z,26.21
2022-09-17T06:49:09.631Z,26.13
2022-09-17T06:51:36.226Z,26.46
2022-09-17T06:54:04.337Z,26.38
2022-09-17T06:56:31.129Z,26.36
2022-09-17T06:58:57.858Z,26.28
2022-09-17T07:01:24.676Z,26.23
2022-09-17T07:03:51.409Z,26.45
2022-09-17T07:06:18.141Z,26.41
2022-09-17T07:08:45.088Z,26.50
2022-09-17T07:11:11.795Z,26.53
2022-09-17T07:13:38.563Z,26.72
2022-09-17T07:16:06.792Z,27.04
2022-09-17T07:18:33.708Z,26.92
2022-09-17T07:21:03.832Z,27.25
2022-09-17T07:23:33.102Z,27.65
2022-09-17T07:26:05.169Z,27.95
2022-09-17T07:28:32.278Z,28.06
2022-09-17T07:30:59.135Z,27.68
2022-09-17T07:33:30.056Z,27.42
2022-09-17T07:36:02.370Z,27.56
2022-09-17T07:38:31.506Z,27.28
2022-09-17T07:41:16.326Z,27.62
2022-09-17T07:43:44.472Z,27.54
2022-09-17T07:46:17.425Z,27.77
2022-09-17T07:48:44.446Z,27.69
2022-09-17T07:51:23.285Z,27.75
2022-09-17T07:53:55.261Z,27.76
2022-09-17T07:56:22.934Z,27.82
2022-09-17T07:58:53.053Z,27.74
2022-09-17T08:01:23.168Z,27.78
2022-09-17T08:03:55.667Z,28.00
2022-09-17T08:06:28.674Z,28.03
2022-09-17T08:09:02.605Z,28.27
2022-09-17T08:11:55.078Z,28.22
2022-09-17T08:14:17.941Z,28.14
2022-09-17T08:16:49.200Z,28.10
2022-09-17T08:19:15.932Z,28.16
2022-09-17T08:21:42.764Z,28.05
2022-09-17T08:24:09.813Z,27.89
2022-09-17T08:26:36.450Z,27.85
2022-09-17T08:29:03.237Z,27.83
2022-09-17T08:31:30.838Z,27.62
2022-09-17T08:33:57.987Z,27.72
2022-09-17T08:36:26.296Z,27.82
2022-09-17T08:38:54.617Z,27.78
2022-09-17T08:41:38.588Z,27.59
2022-09-17T08:44:06.410Z,27.88
2022-09-17T08:46:51.548Z,27.69
2022-09-17T08:49:32.925Z,27.77
2022-09-17T08:52:17.792Z,27.91
2022-09-17T08:55:16.706Z,28.02
2022-09-17T08:57:52.340Z,27.91
2022-09-17T09:00:25.211Z,28.39
2022-09-17T09:03:04.877Z,28.82
2022-09-17T09:05:56.576Z,28.95
2022-09-17T09:08:51.958Z,28.80
2022-09-17T09:11:31.180Z,28.85
2022-09-17T09:14:23.963Z,28.72
2022-09-17T09:16:52.752Z,28.82
2022-09-17T09:19:21.649Z,29.06
2022-09-17T09:22:04.284Z,29.07
2022-09-17T09:24:58.517Z,29.31
2022-09-17T09:27:29.412Z,29.51
2022-09-17T09:30:04.252Z,29.59
2022-09-17T09:32:56.726Z,29.27
2022-09-17T09:35:33.557Z,29.49
2022-09-17T09:38:29.328Z,30.00
2022-09-17T09:41:38.677Z,30.03
2022-09-17T09:44:14.236Z,30.13
2022-09-17T09:47:02.967Z,29.92
2022-09-17T09:49:59.464Z,30.30
2022-09-17T09:52:44.275Z,30.80
2022-09-17T09:55:48.149Z,30.45
2022-09-17T09:58:39.363Z,30.31
2022-09-17T10:01:38.008Z,30.93
2022-09-17T10:04:28.993Z,31.09
2022-09-17T10:07:08.087Z,30.63
2022-09-17T10:09:39.446Z,30.65
2022-09-17T10:12:17.428Z,31.09
2022-09-17T10:14:46.984Z,31.17
2022-09-17T10:17:27.319Z,30.99
2022-09-17T10:20:00.123Z,31.25
2022-09-17T10:22:34.221Z,31.63
2022-09-17T10:25:02.758Z,31.75
2022-09-17T10:27:30.583Z,31.76
2022-09-17T10:30:09.405Z,32.17
2022-09-17T10:32:36.035Z,32.10
2022-09-17T10:35:26.385Z,32.62
2022-09-17T10:37:54.196Z,32.22
2022-09-17T10:40:20.843Z,32.43
2022-09-17T10:42:49.656Z,32.32
2022-09-17T10:45:34.496Z,32.20
2022-09-17T10:48:03.266Z,32.00
2022-09-17T10:50:44.883Z,32.01
2022-09-17T10:53:16.893Z,31.98
2022-09-17T10:55:58.781Z,32.03
2022-09-17T10:58:43.802Z,32.04
2022-09-17T11:01:25.458Z,32.06
2022-09-17T11:04:07.523Z,32.19
2022-09-17T11:07:14.512Z,32.34
2022-09-17T11:09:47.417Z,32.10
2022-09-17T11:12:58.981Z,31.86
2022-09-17T11:15:53.196Z,31.54
2022-09-17T11:18:32.134Z,31.46
2022-09-17T11:21:20.544Z,31.27
2022-09-17T11:24:02.768Z,31.27
2022-09-17T11:26:32.312Z,31.39
2022-09-17T11:29:22.776Z,31.36
2022-09-17T11:32:26.437Z,31.27
2022-09-17T11:35:03.041Z,31.13
2022-09-17T11:37:49.087Z,30.76
2022-09-17T11:40:44.916Z,30.38
2022-09-17T11:43:29.059Z,30.04
2022-09-17T11:46:09.961Z,29.88
2022-09-17T11:49:02.853Z,29.57
2022-09-17T11:51:45.436Z,29.08
2022-09-17T11:54:45.703Z,28.40
2022-09-17T11:57:33.009Z,27.43
2022-09-17T12:00:16.156Z,26.80
2022-09-17T12:03:01.851Z,25.79
2022-09-17T12:05:56.853Z,24.95
2022-09-17T12:08:45.914Z,24.40
2022-09-17T12:11:35.257Z,24.03
2022-09-17T12:14:09.560Z,23.37
2022-09-17T12:16:46.584Z,23.15
2022-09-17T12:19:59.813Z,22.65
2022-09-17T12:22:51.818Z,22.37
2022-09-17T12:25:18.958Z,22.07
2022-09-17T12:28:03.840Z,22.14
2022-09-17T12:30:38.842Z,22.43
2022-09-17T12:33:24.058Z,22.46
2022-09-17T12:36:24.717Z,22.56
2022-09-17T12:39:09.565Z,22.62
2022-09-17T12:41:54.464Z,22.78
2022-09-17T12:44:39.505Z,22.85
2022-09-17T12:47:24.259Z,22.92
2022-09-17T12:50:28.530Z,23.40
2022-09-17T12:53:10.433Z,23.79
2022-09-17T12:55:44.683Z,23.93
2022-09-17T12:58:23.536Z,24.21
2022-09-17T13:01:07.642Z,24.46
2022-09-17T13:03:46.047Z,24.45
2022-09-17T13:06:34.529Z,24.45
2022-09-17T13:09:13.591Z,24.37
2022-09-17T13:11:46.194Z,24.28
2022-09-17T13:14:20.027Z,24.34
2022-09-17T13:17:10.533Z,24.24
2022-09-17T13:20:03.357Z,24.32
2022-09-17T13:22:34.429Z,24.43
2022-09-17T13:25:06.730Z,24.64
2022-09-17T13:27:38.430Z,24.63
2022-09-17T13:30:11.265Z,24.87
2022-09-17T13:32:40.624Z,25.00
2022-09-17T13:35:16.268Z,25.02
2022-09-17T13:37:55.510Z,25.15
2022-09-17T13:40:26.646Z,25.19
2022-09-17T13:42:57.017Z,25.26
2022-09-17T13:45:28.649Z,25.38
2022-09-17T13:47:56.742Z,25.51
2022-09-17T13:50:32.596Z,25.59
2022-09-17T13:53:09.433Z,25.63
2022-09-17T13:55:56.046Z,25.71
2022-09-17T13:58:46.211Z,25.72
2022-09-17T14:01:13.909Z,25.65
2022-09-17T14:03:48.545Z,25.72
2022-09-17T14:06:15.196Z,25.67
2022-09-17T14:08:57.789Z,25.62
2022-09-17T14:11:24.477Z,25.56
2022-09-17T14:14:06.459Z,25.44
2022-09-17T14:16:37.844Z,25.42
2022-09-17T14:19:17.131Z,25.39
2022-09-17T14:21:59.471Z,25.52
2022-09-17T14:24:35.801Z,25.72
2022-09-17T14:27:19.278Z,25.81
2022-09-17T14:30:04.370Z,25.85
2022-09-17T14:32:39.965Z,25.87
2022-09-17T14:35:41.989Z,25.82
2022-09-17T14:38:44.714Z,25.76
2022-09-17T14:41:11.919Z,25.75
2022-09-17T14:44:01.789Z,25.78
2022-09-17T14:46:54.630Z,25.81
2022-09-17T14:49:23.989Z,25.79
2022-09-17T14:51:52.268Z,25.93
2022-09-17T14:54:35.120Z,25.94
2022-09-17T14:57:27.186Z,25.99
2022-09-17T15:00:19.166Z,25.92
2022-09-17T15:02:56.649Z,25.81
2022-09-17T15:05:29.704Z,25.52
2022-09-17T15:08:11.582Z,25.48
2022-09-17T15:10:54.281Z,25.51
2022-09-17T15:13:53.501Z,25.49
2022-09-17T15:16:25.697Z,25.27
2022-09-17T15:19:03.627Z,25.40
2022-09-17T15:21:43.355Z,25.32
2022-09-17T15:24:16.049Z,25.35
2022-09-17T15:26:45.957Z,25.31
2022-09-17T15:29:14.488Z,25.35
2022-09-17T15:31:42.436Z,25.17
2022-09-17T15:34:12.818Z,25.06
2022-09-17T15:36:39.474Z,25.16
2022-09-17T15:39:33.592Z,25.21
2022-09-17T15:42:01.340Z,25.08
2022-09-17T15:44:31.639Z,24.87
2022-09-17T15:47:49.119Z,24.93
2022-09-17T15:50:52.255Z,24.78
2022-09-17T15:53:23.525Z,24.78
2022-09-17T15:56:05.762Z,24.83
2022-09-17T15:58:51.482Z,24.84
2022-09-17T16:01:20.977Z,24.88
2022-09-17T16:04:06.251Z,24.91
2022-09-17T16:06:33.938Z,24.73
2022-09-17T16:09:02.068Z,24.57
2022-09-17T16:11:32.234Z,24.39
2022-09-17T16:14:00.926Z,24.26
2022-09-17T16:16:34.229Z,24.16
2022-09-17T16:19:08.860Z,23.99
2022-09-17T16:21:36.563Z,23.85
2022-09-17T16:24:03.293Z,23.52
2022-09-17T16:26:35.689Z,23.25
2022-09-17T16:29:05.679Z,22.82
2022-09-17T16:31:34.188Z,22.28
2022-09-17T16:34:01.049Z,21.28
2022-09-17T16:36:31.236Z,20.59
2022-09-17T16:39:01.588Z,19.87
2022-09-17T16:41:28.221Z,19.81
2022-09-17T16:43:54.843Z,19.60
2022-09-17T16:46:22.729Z,19.72
2022-09-17T16:48:51.292Z,19.59
2022-09-17T16:51:18.524Z,19.82
2022-09-17T16:53:45.206Z,19.61
2022-09-17T16:56:15.187Z,19.76
2022-09-17T16:58:42.059Z,19.38
2022-09-17T17:01:14.417Z,19.43
2022-09-17T17:03:45.797Z,19.56
2022-09-17T17:06:21.724Z,19.46
2022-09-17T17:08:48.770Z,19.32
2022-09-17T17:11:15.395Z,19.16
2022-09-17T17:13:43.182Z,19.22
2022-09-17T17:16:15.481Z,19.45
2022-09-17T17:21:24.707Z,19.33
2022-09-17T17:23:52.795Z,19.30
2022-09-17T17:29:00.090Z,19.51
2022-09-17T17:31:26.840Z,19.54
2022-09-17T17:33:53.533Z,19.63
2022-09-17T17:36:21.492Z,19.76
2022-09-17T17:38:48.419Z,19.63
2022-09-17T17:41:22.812Z,19.92
2022-09-17T17:43:53.167Z,19.99
2022-09-17T17:46:28.500Z,19.76
2022-09-17T17:48:55.202Z,19.64
2022-09-17T17:51:25.854Z,19.87
2022-09-17T17:53:53.657Z,19.80
2022-09-17T17:56:23.234Z,19.89
2022-09-17T17:59:00.848Z,20.06
2022-09-17T18:01:29.842Z,20.08
2022-09-17T18:03:58.721Z,19.77
2022-09-17T18:06:27.930Z,20.04
2022-09-17T18:08:55.207Z,19.86
2022-09-17T18:11:22.664Z,19.80
2022-09-17T18:13:57.480Z,19.75
2022-09-17T18:16:24.495Z,19.85
2022-09-17T18:18:51.155Z,19.72
2022-09-17T18:21:22.961Z,19.94
2022-09-17T18:24:01.069Z,20.04
2022-09-17T18:26:28.523Z,19.87
2022-09-17T18:28:55.679Z,19.75
2022-09-17T18:31:28.407Z,19.70
2022-09-17T18:34:22.656Z,19.83
2022-09-17T18:36:51.333Z,19.59
2022-09-17T18:39:57.031Z,19.59
2022-09-17T18:42:08.480Z,19.62
2022-09-17T18:44:35.344Z,19.52
2022-09-17T18:47:02.142Z,19.50
2022-09-17T18:49:28.855Z,19.52
2022-09-17T18:51:55.491Z,19.56
2022-09-17T18:54:22.278Z,19.40
2022-09-17T18:56:49.333Z,19.36
2022-09-17T18:59:16.033Z,19.28
2022-09-17T19:01:44.364Z,19.11
2022-09-17T19:04:11.347Z,19.22
2022-09-17T19:06:38.575Z,19.34
2022-09-17T19:09:05.702Z,19.30
2022-09-17T19:11:35.883Z,19.51
2022-09-17T19:14:05.732Z,19.53
2022-09-17T19:16:32.574Z,19.43
2022-09-17T19:19:00.848Z,19.41
2022-09-17T19:21:27.551Z,19.32
2022-09-17T19:23:54.327Z,19.46
2022-09-17T19:26:25.268Z,19.59
2022-09-17T19:28:58.040Z,19.56
2022-09-17T19:31:24.984Z,19.42
2022-09-17T19:33:55.447Z,19.59
2022-09-17T19:36:22.397Z,19.49
2022-09-17T19:38:50.310Z,19.48
2022-09-17T19:41:20.137Z,19.49
2022-09-17T19:43:54.494Z,19.74
2022-09-17T19:46:26.220Z,19.56
2022-09-17T19:48:55.643Z,19.63
2022-09-17T19:51:25.363Z,19.82
2022-09-17T19:53:52.792Z,19.68
2022-09-17T19:56:21.905Z,19.65
2022-09-17T19:58:48.666Z,19.60
2022-09-17T20:01:16.040Z,19.92
2022-09-17T20:03:44.225Z,19.88
2022-09-17T20:06:13.342Z,19.95
2022-09-17T20:08:52.147Z,19.87
2022-09-17T20:11:21.831Z,19.82
2022-09-17T20:13:48.559Z,19.58
2022-09-17T20:16:18.838Z,19.48
2022-09-17T20:18:50.727Z,19.51
2022-09-17T20:21:31.379Z,19.72
2022-09-17T20:23:58.640Z,19.69
2022-09-17T20:26:27.595Z,19.63
2022-09-17T20:29:03.458Z,19.74
2022-09-17T20:31:32.344Z,19.60
2022-09-17T20:34:01.849Z,19.70
2022-09-17T20:36:31.120Z,19.45
2022-09-17T20:39:18.208Z,19.40
2022-09-17T20:41:44.493Z,19.61
2022-09-17T20:44:12.172Z,19.53
2022-09-17T20:46:40.435Z,19.56
2022-09-17T20:49:08.730Z,19.63
2022-09-17T20:51:36.980Z,19.52
2022-09-17T20:54:05.507Z,19.61
2022-09-17T20:56:35.089Z,19.81
2022-09-17T20:59:17.448Z,19.69
2022-09-17T21:01:49.976Z,19.39
2022-09-17T21:04:36.723Z,19.62
2022-09-17T21:07:07.583Z,19.43
2022-09-17T21:09:34.713Z,19.59
2022-09-17T21:12:01.410Z,19.66
2022-09-17T21:14:28.033Z,19.57
2022-09-17T21:16:54.695Z,19.39
2022-09-17T21:19:24.334Z,19.65
2022-09-17T21:21:54.634Z,19.49
2022-09-17T21:24:21.289Z,19.53
2022-09-17T21:26:48.450Z,19.57
2022-09-17T21:29:20.814Z,19.43
2022-09-17T21:31:48.904Z,19.44
2022-09-17T21:34:18.357Z,19.24
2022-09-17T21:36:44.995Z,19.14
2022-09-17T21:39:14.747Z,18.97
2022-09-17T21:41:43.069Z,19.00
2022-09-17T21:44:12.228Z,19.07
2022-09-17T21:46:42.656Z,19.03
2022-09-17T21:49:12.523Z,18.94
2022-09-17T21:51:42.159Z,19.01
2022-09-17T21:54:11.610Z,19.02
2022-09-17T21:56:39.705Z,18.59
2022-09-17T21:59:08.778Z,18.79
2022-09-17T22:01:47.381Z,18.89
2022-09-17T22:04:19.380Z,18.83
2022-09-17T22:06:48.894Z,18.84
2022-09-17T22:09:19.303Z,18.78
2022-09-17T22:11:46.143Z,18.54
2022-09-17T22:14:21.937Z,18.83
2022-09-17T22:16:54.629Z,18.80
2022-09-17T22:19:23.600Z,18.67
2022-09-17T22:21:53.257Z,18.66
2022-09-17T22:24:21.658Z,18.65
2022-09-17T22:26:55.950Z,18.40
2022-09-17T22:29:24.485Z,18.48
2022-09-17T22:31:51.246Z,18.32
2022-09-17T22:34:20.382Z,18.49
2022-09-17T22:36:47.396Z,18.31
2022-09-17T22:39:14.090Z,18.18
2022-09-17T22:41:45.358Z,18.18
2022-09-17T22:44:23.876Z,18.31
2022-09-17T22:46:53.541Z,18.18
2022-09-17T22:49:21.384Z,17.90
2022-09-17T22:51:48.231Z,18.12
2022-09-17T22:54:17.187Z,18.10
2022-09-17T22:56:47.173Z,18.04
2022-09-17T22:59:14.019Z,17.87
2022-09-17T23:01:42.276Z,18.04
2022-09-17T23:04:09.789Z,18.05
2022-09-17T23:06:39.003Z,18.05
2022-09-17T23:09:13.053Z,18.28
2022-09-17T23:11:40.553Z,18.18
2022-09-17T23:14:10.086Z,18.06
2022-09-17T23:16:47.178Z,18.27
2022-09-17T23:19:15.946Z,18.18
2022-09-17T23:21:44.645Z,18.28
2022-09-17T23:24:18.707Z,18.30
2022-09-17T23:26:45.378Z,18.16
2022-09-17T23:29:12.054Z,18.18
2022-09-17T23:34:19.984Z,18.21
2022-09-17T23:36:47.538Z,18.00
2022-09-17T23:39:14.268Z,18.13
2022-09-17T23:41:43.506Z,18.19
2022-09-17T23:44:15.721Z,18.02
2022-09-17T23:46:46.575Z,18.22
2022-09-17T23:49:14.457Z,18.15
2022-09-17T23:51:41.379Z,17.89
2022-09-17T23:54:08.081Z,18.01
2022-09-17T23:56:35.439Z,17.83
2022-09-17T23:59:02.844Z,17.88
